createdAt,value
2018-05-25T00:00:40.676Z,7.47
2018-05-25T00:03:21.017Z,9.77
2018-05-25T00:06:01.380Z,7.70
2018-05-25T00:08:41.709Z,6.37
2018-05-25T00:11:22.046Z,10.60
2018-05-25T00:14:02.400Z,8.00
2018-05-25T00:16:42.732Z,10.83
2018-05-25T00:19:23.161Z,7.60
2018-05-25T00:22:06.672Z,8.73
2018-05-25T00:24:47.012Z,13.13
2018-05-25T00:27:27.893Z,13.73
2018-05-25T00:30:16.120Z,10.10
2018-05-25T00:32:57.000Z,18.20
2018-05-25T00:35:37.310Z,15.93
2018-05-25T00:38:17.858Z,18.20
2018-05-25T00:40:59.715Z,12.43
2018-05-25T00:43:40.089Z,16.40
2018-05-25T00:46:20.399Z,12.07
2018-05-25T00:49:00.710Z,15.37
2018-05-25T00:51:50.446Z,16.73
2018-05-25T00:54:30.925Z,16.90
2018-05-25T00:57:11.908Z,15.67
2018-05-25T00:59:57.974Z,13.50
2018-05-25T01:02:38.157Z,15.63
2018-05-25T01:05:18.559Z,14.00
2018-05-25T01:07:59.884Z,12.33
2018-05-25T01:10:40.764Z,15.60
2018-05-25T01:13:28.052Z,13.80
2018-05-25T01:16:08.514Z,11.57
2018-05-25T01:18:48.740Z,11.80
2018-05-25T01:21:31.000Z,15.07
2018-05-25T01:24:11.286Z,14.37
2018-05-25T01:26:51.649Z,10.63
2018-05-25T01:29:31.863Z,10.20
2018-05-25T01:32:13.060Z,13.30
2018-05-25T01:34:53.364Z,15.43
2018-05-25T01:37:34.861Z,15.20
2018-05-25T01:40:15.281Z,11.73
2018-05-25T01:42:57.145Z,12.87
2018-05-25T01:45:37.554Z,12.33
2018-05-25T01:48:17.885Z,15.33
2018-05-25T01:51:00.184Z,12.70
2018-05-25T01:53:43.170Z,10.80
2018-05-25T01:56:26.604Z,11.77
2018-05-25T02:02:28.979Z,12.43
2018-05-25T02:05:09.280Z,7.90
2018-05-25T02:07:50.369Z,9.83
2018-05-25T02:10:32.825Z,13.07
2018-05-25T02:13:13.126Z,7.40
2018-05-25T02:15:54.141Z,7.17
2018-05-25T02:18:34.629Z,6.53
2018-05-25T02:21:15.833Z,10.77
2018-05-25T02:23:56.273Z,9.90
2018-05-25T02:26:36.621Z,7.67
2018-05-25T02:29:17.331Z,9.80
2018-05-25T02:31:58.291Z,8.73
2018-05-25T02:34:38.587Z,8.33
2018-05-25T02:37:19.670Z,11.63
2018-05-25T02:40:00.054Z,7.70
2018-05-25T02:42:40.482Z,8.47
2018-05-25T02:45:21.664Z,8.43
2018-05-25T02:48:02.913Z,8.07
2018-05-25T02:50:43.344Z,6.70
2018-05-25T02:53:24.497Z,7.20
2018-05-25T02:56:04.992Z,7.97
2018-05-25T02:58:45.294Z,8.70
2018-05-25T03:01:25.621Z,7.73
2018-05-25T03:04:06.068Z,10.27
2018-05-25T03:06:46.400Z,12.53
2018-05-25T03:09:26.841Z,7.10
2018-05-25T03:12:07.849Z,8.67
2018-05-25T03:14:48.256Z,7.83
2018-05-25T03:17:28.733Z,10.50
2018-05-25T03:20:09.045Z,10.30
2018-05-25T03:22:51.971Z,7.87
2018-05-25T03:25:32.300Z,11.13
2018-05-25T03:28:12.689Z,10.63
2018-05-25T03:30:56.960Z,9.90
2018-05-25T03:33:37.223Z,9.57
2018-05-25T03:36:17.516Z,9.13
2018-05-25T03:38:58.596Z,8.23
2018-05-25T03:41:39.601Z,9.23
2018-05-25T03:44:23.044Z,10.60
2018-05-25T03:47:03.515Z,9.07
2018-05-25T03:49:44.056Z,11.90
2018-05-25T03:52:24.401Z,10.50
2018-05-25T03:55:05.483Z,8.80
2018-05-25T03:57:45.973Z,8.50
2018-05-25T04:00:44.264Z,10.17
2018-05-25T04:03:24.790Z,8.97
2018-05-25T04:06:09.256Z,10.70
2018-05-25T04:08:50.122Z,12.67
2018-05-25T04:11:30.460Z,11.73
2018-05-25T04:14:10.784Z,7.17
2018-05-25T04:16:51.893Z,9.13
2018-05-25T04:19:32.121Z,8.83
2018-05-25T04:22:12.550Z,6.97
2018-05-25T04:24:53.419Z,5.93
2018-05-25T04:27:33.917Z,7.03
2018-05-25T04:30:14.342Z,6.90
2018-05-25T04:32:54.651Z,8.20
2018-05-25T04:35:36.063Z,7.90
2018-05-25T04:38:16.392Z,12.23
2018-05-25T04:40:56.549Z,7.43
2018-05-25T04:43:37.124Z,9.03
2018-05-25T04:46:17.605Z,7.57
2018-05-25T04:48:57.985Z,6.47
2018-05-25T04:51:38.520Z,7.70
2018-05-25T04:54:18.977Z,6.23
2018-05-25T04:56:59.257Z,7.67
2018-05-25T04:59:39.704Z,6.03
2018-05-25T05:02:20.496Z,5.23
2018-05-25T05:05:00.926Z,7.83
2018-05-25T05:07:41.189Z,5.63
2018-05-25T05:10:22.321Z,7.57
2018-05-25T05:13:02.626Z,9.27
2018-05-25T05:15:43.277Z,6.00
2018-05-25T05:18:24.385Z,7.97
2018-05-25T05:21:04.856Z,9.93
2018-05-25T05:23:45.125Z,9.07
2018-05-25T05:26:25.506Z,11.50
2018-05-25T05:29:05.996Z,9.80
2018-05-25T05:31:46.184Z,9.63
2018-05-25T05:34:26.452Z,9.33
2018-05-25T05:37:06.893Z,8.57
2018-05-25T05:39:47.128Z,6.23
2018-05-25T05:42:27.482Z,9.53
2018-05-25T05:45:07.911Z,8.43
2018-05-25T05:47:48.261Z,8.20
2018-05-25T05:50:29.929Z,8.90
2018-05-25T05:53:10.262Z,8.17
2018-05-25T05:55:51.233Z,13.10
2018-05-25T05:58:31.987Z,7.00
2018-05-25T06:01:12.195Z,8.10
2018-05-25T06:03:53.849Z,8.07
2018-05-25T06:06:34.510Z,8.87
2018-05-25T06:09:14.829Z,11.87
2018-05-25T06:11:55.241Z,8.83
2018-05-25T06:14:35.719Z,9.30
2018-05-25T06:17:16.029Z,12.87
2018-05-25T06:19:56.258Z,10.03
2018-05-25T06:22:36.533Z,9.67
2018-05-25T06:25:16.842Z,10.30
2018-05-25T06:27:57.808Z,13.90
2018-05-25T06:30:38.160Z,9.07
2018-05-25T06:33:19.385Z,10.50
2018-05-25T06:35:59.588Z,11.23
2018-05-25T06:38:39.965Z,7.73
2018-05-25T06:41:22.263Z,7.53
2018-05-25T06:44:02.603Z,7.90
2018-05-25T06:46:42.880Z,8.50
2018-05-25T06:49:23.681Z,9.33
2018-05-25T06:52:03.991Z,8.37
2018-05-25T06:54:45.144Z,8.13
2018-05-25T06:57:25.492Z,9.33
2018-05-25T07:00:05.685Z,8.03
2018-05-25T07:02:46.276Z,7.93
2018-05-25T07:05:27.274Z,10.07
2018-05-25T07:08:07.560Z,5.10
2018-05-25T07:10:48.544Z,5.33
2018-05-25T07:13:29.245Z,4.50
2018-05-25T07:16:09.676Z,6.00
2018-05-25T07:18:50.596Z,4.73
2018-05-25T07:21:31.081Z,4.87
2018-05-25T07:24:11.518Z,4.43
2018-05-25T07:26:52.455Z,4.10
2018-05-25T07:29:32.851Z,5.23
2018-05-25T07:32:13.105Z,4.60
2018-05-25T07:34:54.108Z,5.07
2018-05-25T07:37:34.290Z,7.17
2018-05-25T07:40:14.601Z,3.97
2018-05-25T07:42:55.028Z,4.47
2018-05-25T07:45:35.353Z,4.53
2018-05-25T07:48:15.833Z,4.23
2018-05-25T07:50:56.110Z,7.00
2018-05-25T07:53:36.568Z,5.03
2018-05-25T07:56:16.895Z,5.10
2018-05-25T07:58:58.097Z,6.10
2018-05-25T08:01:39.460Z,4.20
2018-05-25T08:04:20.637Z,3.90
2018-05-25T08:07:01.012Z,8.47
2018-05-25T08:09:41.477Z,5.50
2018-05-25T08:12:22.245Z,4.40
2018-05-25T08:15:02.586Z,3.63
2018-05-25T08:17:43.266Z,6.23
2018-05-25T08:20:24.306Z,4.00
2018-05-25T08:23:04.614Z,6.03
2018-05-25T08:25:45.782Z,4.53
2018-05-25T08:28:26.245Z,6.07
2018-05-25T08:31:06.568Z,4.23
2018-05-25T08:33:47.917Z,4.63
2018-05-25T08:36:28.382Z,3.93
2018-05-25T08:39:08.680Z,4.13
2018-05-25T08:41:48.980Z,5.33
2018-05-25T08:44:29.484Z,5.13
2018-05-25T08:47:11.654Z,3.67
2018-05-25T08:49:52.232Z,6.03
2018-05-25T08:52:33.539Z,5.27
2018-05-25T08:55:14.789Z,4.80
2018-05-25T08:57:55.157Z,4.70
2018-05-25T09:00:35.736Z,5.00
2018-05-25T09:03:16.181Z,4.23
2018-05-25T09:05:56.638Z,7.93
2018-05-25T09:08:36.937Z,6.17
2018-05-25T09:11:17.380Z,6.60
2018-05-25T09:13:57.695Z,3.73
2018-05-25T09:16:38.148Z,5.33
2018-05-25T09:19:18.578Z,4.13
2018-05-25T09:21:59.804Z,5.60
2018-05-25T09:24:41.001Z,7.53
2018-05-25T09:27:26.288Z,5.50
2018-05-25T09:30:06.767Z,5.07
2018-05-25T09:32:49.149Z,4.80
2018-05-25T09:35:29.957Z,4.30
2018-05-25T09:38:10.328Z,8.53
2018-05-25T09:40:51.279Z,5.97
2018-05-25T09:43:31.615Z,9.13
2018-05-25T09:46:11.903Z,5.63
2018-05-25T09:48:52.994Z,5.27
2018-05-25T09:51:33.488Z,4.40
2018-05-25T09:54:13.788Z,5.63
2018-05-25T09:57:01.028Z,6.23
2018-05-25T09:59:41.324Z,5.93
2018-05-25T10:02:22.413Z,3.83
2018-05-25T10:05:02.817Z,5.30
2018-05-25T10:07:43.171Z,8.63
2018-05-25T10:10:24.200Z,6.13
2018-05-25T10:13:04.532Z,5.23
2018-05-25T10:15:45.027Z,7.77
2018-05-25T10:18:26.155Z,6.27
2018-05-25T10:21:06.369Z,8.57
2018-05-25T10:23:46.706Z,6.67
2018-05-25T10:26:27.126Z,3.83
2018-05-25T10:29:07.464Z,7.00
2018-05-25T10:31:47.890Z,4.13
2018-05-25T10:34:29.012Z,5.10
2018-05-25T10:37:09.489Z,4.23
2018-05-25T10:39:52.362Z,3.93
2018-05-25T10:42:32.784Z,7.23
2018-05-25T10:45:13.277Z,5.63
2018-05-25T10:47:54.237Z,5.57
2018-05-25T10:50:34.709Z,5.80
2018-05-25T10:53:15.025Z,5.87
2018-05-25T10:55:55.777Z,6.80
2018-05-25T10:58:36.104Z,3.70
2018-05-25T11:01:16.628Z,6.13
2018-05-25T11:03:57.123Z,3.93
2018-05-25T11:06:38.480Z,5.10
2018-05-25T11:09:18.780Z,6.30
2018-05-25T11:11:59.000Z,4.43
2018-05-25T11:14:39.402Z,7.90
2018-05-25T11:17:19.823Z,4.90
2018-05-25T11:20:01.359Z,5.13
2018-05-25T11:22:41.824Z,5.40
2018-05-25T11:25:22.941Z,4.43
2018-05-25T11:28:03.246Z,3.80
2018-05-25T11:30:43.584Z,3.97
2018-05-25T11:33:24.270Z,4.37
2018-05-25T11:36:04.602Z,6.27
2018-05-25T11:38:45.056Z,6.20
2018-05-25T11:41:25.939Z,5.57
2018-05-25T11:44:07.318Z,3.40
2018-05-25T11:46:47.725Z,7.80
2018-05-25T11:49:28.235Z,4.30
2018-05-25T11:52:08.580Z,4.83
2018-05-25T11:54:49.039Z,3.60
2018-05-25T11:57:30.268Z,5.03
2018-05-25T12:00:10.471Z,5.10
2018-05-25T12:02:51.543Z,4.60
2018-05-25T12:05:31.896Z,6.23
2018-05-25T12:08:12.336Z,4.27
2018-05-25T12:10:53.161Z,7.30
2018-05-25T12:13:33.507Z,4.00
2018-05-25T12:16:13.834Z,5.77
2018-05-25T12:18:54.169Z,5.77
2018-05-25T12:21:34.515Z,5.67
2018-05-25T12:24:14.876Z,3.87
2018-05-25T12:26:58.407Z,10.00
2018-05-25T12:29:39.520Z,4.97
2018-05-25T12:32:19.856Z,6.63
2018-05-25T12:35:00.685Z,4.97
2018-05-25T12:37:41.115Z,4.40
2018-05-25T12:40:22.151Z,4.50
2018-05-25T12:43:03.084Z,4.20
2018-05-25T12:45:44.056Z,6.07
2018-05-25T12:48:26.010Z,5.27
2018-05-25T12:51:06.194Z,4.53
2018-05-25T12:53:46.635Z,4.87
2018-05-25T12:56:27.152Z,4.47
2018-05-25T12:59:07.621Z,5.97
2018-05-25T13:01:48.036Z,4.30
2018-05-25T13:04:29.255Z,3.37
2018-05-25T13:07:09.550Z,6.47
2018-05-25T13:09:50.072Z,6.23
2018-05-25T13:12:30.388Z,5.37
2018-05-25T13:15:10.870Z,7.77
2018-05-25T13:17:52.182Z,4.60
2018-05-25T13:20:33.034Z,5.87
2018-05-25T13:23:15.048Z,3.60
2018-05-25T13:25:55.976Z,3.73
2018-05-25T13:28:37.086Z,3.27
2018-05-25T13:31:18.089Z,4.97
2018-05-25T13:33:58.457Z,5.37
2018-05-25T13:36:38.913Z,4.23
2018-05-25T13:39:19.368Z,6.10
2018-05-25T13:42:00.443Z,2.93
2018-05-25T13:44:40.749Z,4.00
2018-05-25T13:47:22.876Z,4.27
2018-05-25T13:50:03.973Z,8.40
2018-05-25T13:52:44.471Z,7.33
2018-05-25T13:55:24.984Z,4.50
2018-05-25T13:58:06.090Z,6.83
2018-05-25T14:00:47.562Z,3.60
2018-05-25T14:03:29.653Z,5.03
2018-05-25T14:06:09.995Z,4.83
2018-05-25T14:08:50.285Z,4.80
2018-05-25T14:11:31.644Z,7.90
2018-05-25T14:14:12.104Z,5.97
2018-05-25T14:16:53.327Z,7.47
2018-05-25T14:19:33.985Z,5.37
2018-05-25T14:22:15.191Z,4.73
2018-05-25T14:24:56.633Z,3.77
2018-05-25T14:27:37.054Z,6.43
2018-05-25T14:30:17.472Z,6.10
2018-05-25T14:33:01.446Z,4.70
2018-05-25T14:35:41.729Z,4.73
2018-05-25T14:38:23.348Z,3.87
2018-05-25T14:41:03.861Z,6.77
2018-05-25T14:43:44.212Z,4.33
2018-05-25T14:46:24.761Z,3.73
2018-05-25T14:49:05.894Z,5.27
2018-05-25T14:51:46.288Z,4.40
2018-05-25T14:54:26.653Z,6.17
2018-05-25T14:57:07.779Z,4.63
2018-05-25T14:59:48.085Z,5.37
2018-05-25T15:02:28.889Z,3.10
2018-05-25T15:05:09.212Z,3.60
2018-05-25T15:07:50.912Z,3.90
2018-05-25T15:10:31.271Z,5.23
2018-05-25T15:13:11.816Z,7.43
2018-05-25T15:15:53.052Z,3.90
2018-05-25T15:18:33.653Z,5.30
2018-05-25T15:21:14.935Z,4.33
2018-05-25T15:23:55.465Z,5.70
2018-05-25T15:26:35.797Z,6.00
2018-05-25T15:29:16.265Z,7.33
2018-05-25T15:31:56.660Z,3.87
2018-05-25T15:34:37.706Z,5.63
2018-05-25T15:37:18.665Z,7.27
2018-05-25T15:39:59.144Z,8.53
2018-05-25T15:42:39.547Z,4.10
2018-05-25T15:45:20.727Z,5.30
2018-05-25T15:48:01.881Z,5.40
2018-05-25T15:50:42.313Z,8.10
2018-05-25T15:53:24.263Z,6.17
2018-05-25T15:56:06.624Z,4.53
2018-05-25T15:58:47.007Z,6.73
2018-05-25T16:01:28.048Z,5.50
2018-05-25T16:04:08.488Z,6.07
2018-05-25T16:06:58.985Z,7.97
2018-05-25T16:09:39.305Z,6.57
2018-05-25T16:12:20.422Z,5.10
2018-05-25T16:15:02.689Z,7.93
2018-05-25T16:17:43.243Z,9.93
2018-05-25T16:20:24.228Z,7.37
2018-05-25T16:23:05.429Z,5.60
2018-05-25T16:25:45.661Z,6.33
2018-05-25T16:28:27.017Z,5.00
2018-05-25T16:31:07.302Z,7.17
2018-05-25T16:33:47.627Z,7.33
2018-05-25T16:36:27.941Z,8.40
2018-05-25T16:39:08.406Z,6.10
2018-05-25T16:41:48.890Z,10.80
2018-05-25T16:44:29.244Z,7.10
2018-05-25T16:47:09.893Z,6.70
2018-05-25T16:49:50.368Z,8.00
2018-05-25T16:52:31.248Z,11.67
2018-05-25T16:55:11.487Z,9.20
2018-05-25T16:57:52.592Z,9.07
2018-05-25T17:00:33.052Z,7.57
2018-05-25T17:03:13.376Z,7.50
2018-05-25T17:05:54.329Z,5.07
2018-05-25T17:08:34.738Z,6.57
2018-05-25T17:11:15.074Z,6.63
2018-05-25T17:13:55.979Z,7.83
2018-05-25T17:16:36.473Z,7.43
2018-05-25T17:19:16.996Z,8.23
2018-05-25T17:21:57.316Z,7.27
2018-05-25T17:24:37.585Z,7.40
2018-05-25T17:27:19.012Z,6.83
2018-05-25T17:30:00.258Z,8.03
2018-05-25T17:32:40.717Z,6.80
2018-05-25T17:35:21.047Z,7.57
2018-05-25T17:38:02.293Z,6.73
2018-05-25T17:40:42.496Z,6.40
2018-05-25T17:43:24.126Z,7.50
2018-05-25T17:46:04.531Z,9.60
2018-05-25T17:48:44.999Z,11.30
2018-05-25T17:51:25.454Z,6.83
2018-05-25T17:54:05.824Z,10.73
2018-05-25T17:56:46.569Z,9.20
2018-05-25T17:59:27.134Z,9.63
2018-05-25T18:02:07.451Z,5.47
2018-05-25T18:04:47.870Z,6.80
2018-05-25T18:07:28.290Z,7.97
2018-05-25T18:10:08.763Z,8.73
2018-05-25T18:12:49.156Z,12.70
2018-05-25T18:15:30.354Z,7.73
2018-05-25T18:18:10.786Z,10.07
2018-05-25T18:20:51.915Z,10.87
2018-05-25T18:23:33.184Z,8.97
2018-05-25T18:26:13.653Z,13.20
2018-05-25T18:28:54.085Z,9.73
2018-05-25T18:31:36.153Z,9.20
2018-05-25T18:34:16.469Z,6.67
2018-05-25T18:36:57.616Z,8.23
2018-05-25T18:39:37.892Z,8.17
2018-05-25T18:42:18.364Z,6.27
2018-05-25T18:45:01.005Z,6.03
2018-05-25T18:47:42.280Z,7.20
2018-05-25T18:50:22.744Z,7.80
2018-05-25T18:53:03.129Z,9.50
2018-05-25T18:55:43.513Z,8.07
2018-05-25T18:58:24.074Z,6.47
2018-05-25T19:01:04.402Z,9.00
2018-05-25T19:03:44.738Z,10.27
2018-05-25T19:06:25.141Z,8.67
2018-05-25T19:09:06.857Z,6.80
2018-05-25T19:11:47.229Z,8.73
2018-05-25T19:14:28.508Z,8.00
2018-05-25T19:17:08.980Z,9.67
2018-05-25T19:19:49.514Z,5.90
2018-05-25T19:22:30.245Z,7.10
2018-05-25T19:25:10.776Z,6.53
2018-05-25T19:27:51.222Z,8.60
2018-05-25T19:30:32.878Z,9.73
2018-05-25T19:33:13.292Z,7.07
2018-05-25T19:35:53.794Z,7.00
2018-05-25T19:38:34.953Z,9.30
2018-05-25T19:41:15.415Z,7.80
2018-05-25T19:43:57.843Z,11.57
2018-05-25T19:46:38.721Z,9.80
2018-05-25T19:49:19.233Z,9.53
2018-05-25T19:51:59.718Z,8.00
2018-05-25T19:54:40.267Z,9.83
2018-05-25T19:57:20.630Z,10.00
2018-05-25T20:00:01.496Z,13.07
2018-05-25T20:02:41.837Z,13.20
2018-05-25T20:05:22.336Z,13.57
2018-05-25T20:08:03.791Z,11.63
2018-05-25T20:10:44.556Z,13.67
2018-05-25T20:13:25.869Z,13.80
2018-05-25T20:16:06.646Z,12.57
2018-05-25T20:18:46.962Z,16.40
2018-05-25T20:21:27.794Z,16.07
2018-05-25T20:24:08.244Z,16.07
2018-05-25T20:26:48.703Z,16.13
2018-05-25T20:29:29.456Z,15.10
2018-05-25T20:32:09.837Z,12.97
2018-05-25T20:34:50.163Z,15.53
2018-05-25T20:37:32.129Z,17.20
2018-05-25T20:40:12.906Z,19.57
2018-05-25T20:42:53.966Z,17.27
2018-05-25T20:45:34.464Z,16.87
2018-05-25T20:48:14.880Z,14.87
2018-05-25T20:50:55.353Z,17.43
2018-05-25T20:53:36.160Z,18.37
2018-05-25T20:56:17.146Z,17.33
2018-05-25T20:58:57.524Z,18.17
2018-05-25T21:01:41.850Z,16.23
2018-05-25T21:04:23.025Z,15.33
2018-05-25T21:07:05.302Z,17.50
2018-05-25T21:09:45.674Z,17.60
2018-05-25T21:12:26.085Z,22.27
2018-05-25T21:15:06.390Z,12.33
2018-05-25T21:17:46.777Z,13.47
2018-05-25T21:20:27.079Z,14.33
2018-05-25T21:23:07.893Z,14.27
2018-05-25T21:25:48.543Z,13.53
2018-05-25T21:28:30.113Z,16.17
2018-05-25T21:31:10.564Z,15.57
2018-05-25T21:33:50.976Z,20.73
2018-05-25T21:36:35.257Z,18.77
2018-05-25T21:39:15.947Z,18.70
2018-05-25T21:41:56.332Z,16.27
2018-05-25T21:44:36.874Z,17.93
2018-05-25T21:47:18.001Z,17.87
2018-05-25T21:49:59.272Z,19.87
2018-05-25T21:52:42.305Z,21.67
2018-05-25T21:55:27.721Z,21.57
2018-05-25T21:58:08.444Z,20.50
2018-05-25T22:01:02.485Z,18.37
2018-05-25T22:03:42.977Z,19.00
2018-05-25T22:06:24.106Z,16.27
2018-05-25T22:09:04.504Z,17.80
2018-05-25T22:11:44.868Z,20.93
2018-05-25T22:14:25.229Z,18.83
2018-05-25T22:17:05.501Z,19.53
2018-05-25T22:19:47.780Z,16.23
2018-05-25T22:22:28.145Z,19.43
2018-05-25T22:25:08.594Z,22.57
2018-05-25T22:27:49.098Z,23.63
2018-05-25T22:30:31.004Z,20.63
2018-05-25T22:33:11.676Z,22.97
2018-05-25T22:35:52.022Z,22.53
2018-05-25T22:38:33.125Z,23.63
2018-05-25T22:41:13.453Z,22.67
2018-05-25T22:44:12.769Z,23.43
2018-05-25T22:47:16.867Z,22.30
2018-05-25T22:50:21.768Z,24.33
2018-05-25T22:53:13.316Z,22.97
2018-05-25T22:55:53.796Z,22.97
2018-05-25T22:58:34.374Z,21.30
2018-05-25T23:01:14.773Z,19.20
2018-05-25T23:03:55.240Z,20.27
2018-05-25T23:06:36.885Z,19.43
2018-05-25T23:09:17.258Z,17.77
2018-05-25T23:11:57.623Z,22.77
2018-05-25T23:14:38.185Z,17.83
2018-05-25T23:17:18.533Z,16.37
2018-05-25T23:19:58.974Z,19.57
2018-05-25T23:22:39.318Z,16.47
2018-05-25T23:25:19.614Z,14.57
2018-05-25T23:28:00.713Z,14.70
2018-05-25T23:30:41.163Z,18.47
2018-05-25T23:33:21.621Z,21.63
2018-05-25T23:36:02.736Z,13.97
2018-05-25T23:38:43.154Z,12.30
2018-05-25T23:41:23.462Z,14.80
2018-05-25T23:44:04.320Z,15.53
2018-05-25T23:46:44.781Z,13.97
2018-05-25T23:49:25.185Z,13.97
2018-05-25T23:52:06.096Z,14.43
2018-05-25T23:54:46.584Z,17.73
2018-05-25T23:57:26.952Z,23.37
